createdAt,value
2023-04-10T00:01:20.756Z,10.26
2023-04-10T00:03:48.640Z,10.29
2023-04-10T00:06:16.906Z,10.32
2023-04-10T00:08:44.304Z,10.38
2023-04-10T00:11:14.534Z,10.42
2023-04-10T00:13:42.856Z,10.49
2023-04-10T00:16:11.294Z,10.54
2023-04-10T00:18:38.933Z,10.61
2023-04-10T00:21:07.294Z,10.64
2023-04-10T00:23:37.401Z,10.67
2023-04-10T00:26:05.392Z,10.71
2023-04-10T00:28:32.934Z,10.75
2023-04-10T00:31:00.475Z,10.78
2023-04-10T00:33:27.787Z,10.82
2023-04-10T00:35:55.934Z,10.86
2023-04-10T00:38:23.647Z,10.89
2023-04-10T00:40:51.885Z,10.91
2023-04-10T00:43:20.634Z,10.93
2023-04-10T00:45:50.796Z,10.97
2023-04-10T00:48:19.392Z,10.98
2023-04-10T00:50:47.200Z,11.00
2023-04-10T00:53:16.132Z,11.03
2023-04-10T00:55:44.531Z,11.04
2023-04-10T00:58:14.808Z,11.05
2023-04-10T01:00:42.413Z,11.07
2023-04-10T01:03:12.081Z,11.08
2023-04-10T01:05:44.546Z,11.11
2023-04-10T01:08:18.835Z,11.12
2023-04-10T01:10:46.834Z,11.10
2023-04-10T01:13:23.505Z,11.11
2023-04-10T01:16:00.307Z,11.07
2023-04-10T01:18:36.828Z,11.05
2023-04-10T01:21:08.446Z,11.05
2023-04-10T01:23:51.991Z,11.03
2023-04-10T01:26:48.057Z,11.01
2023-04-10T01:29:20.888Z,10.99
2023-04-10T01:31:58.709Z,10.97
2023-04-10T01:34:30.552Z,10.96
2023-04-10T01:37:02.669Z,10.96
2023-04-10T01:39:30.968Z,10.95
2023-04-10T01:42:01.364Z,10.97
2023-04-10T01:44:41.151Z,10.98
2023-04-10T01:47:09.126Z,10.99
2023-04-10T01:49:42.935Z,10.99
2023-04-10T01:52:11.993Z,11.00
2023-04-10T01:54:40.870Z,10.98
2023-04-10T01:57:08.594Z,10.98
2023-04-10T01:59:52.173Z,10.95
2023-04-10T02:02:19.934Z,10.92
2023-04-10T02:04:51.975Z,10.88
2023-04-10T02:07:19.567Z,10.83
2023-04-10T02:09:47.382Z,10.81
2023-04-10T02:12:27.159Z,10.79
2023-04-10T02:15:00.153Z,10.76
2023-04-10T02:17:32.848Z,10.74
2023-04-10T02:20:00.966Z,10.75
2023-04-10T02:22:29.000Z,10.77
2023-04-10T02:24:57.571Z,10.77
2023-04-10T02:27:33.654Z,10.72
2023-04-10T02:30:02.624Z,10.69
2023-04-10T02:32:34.205Z,10.65
2023-04-10T02:35:04.641Z,10.61
2023-04-10T02:37:33.665Z,10.58
2023-04-10T02:40:04.145Z,10.57
2023-04-10T02:42:41.329Z,10.60
2023-04-10T02:45:11.691Z,10.59
2023-04-10T02:47:43.035Z,10.60
2023-04-10T02:50:12.343Z,10.61
2023-04-10T02:52:43.464Z,10.61
2023-04-10T02:55:11.740Z,10.63
2023-04-10T02:57:42.897Z,10.66
2023-04-10T03:00:11.174Z,10.67
2023-04-10T03:07:42.997Z,10.75
2023-04-10T03:10:30.113Z,10.82
2023-04-10T03:13:07.900Z,10.92
2023-04-10T03:15:45.776Z,11.04
2023-04-10T03:18:13.316Z,11.12
2023-04-10T03:20:44.894Z,11.20
2023-04-10T03:23:14.520Z,11.27
2023-04-10T03:25:42.252Z,11.34
2023-04-10T03:28:09.962Z,11.44
2023-04-10T03:30:37.936Z,11.53
2023-04-10T03:33:05.631Z,11.62
2023-04-10T03:35:33.199Z,11.66
2023-04-10T03:38:01.009Z,11.70
2023-04-10T03:40:54.124Z,11.80
2023-04-10T03:44:00.634Z,11.93
2023-04-10T03:51:15.042Z,12.05
2023-04-10T03:54:15.359Z,12.04
2023-04-10T03:57:08.517Z,12.08
2023-04-10T04:00:23.135Z,12.11
2023-04-10T04:15:56.197Z,12.72
2023-04-10T04:18:46.719Z,12.90
2023-04-10T04:21:33.062Z,13.00
2023-04-10T04:24:08.435Z,13.12
2023-04-10T04:27:11.782Z,13.33
2023-04-10T04:29:51.706Z,13.45
2023-04-10T04:32:25.369Z,13.64
2023-04-10T04:35:17.285Z,13.85
2023-04-10T04:38:17.275Z,14.07
2023-04-10T04:41:31.370Z,14.20
2023-04-10T04:44:27.401Z,14.35
2023-04-10T04:47:03.732Z,14.51
2023-04-10T04:50:00.424Z,14.64
2023-04-10T04:52:48.089Z,14.80
2023-04-10T04:55:27.694Z,14.92
2023-04-10T04:58:04.212Z,14.87
2023-04-10T05:00:47.074Z,14.85
2023-04-10T05:03:44.297Z,14.80
2023-04-10T05:06:37.443Z,14.70
2023-04-10T05:09:31.500Z,14.58
2023-04-10T05:12:09.256Z,14.42
2023-04-10T05:14:42.697Z,14.42
2023-04-10T05:17:31.276Z,14.44
2023-04-10T05:20:17.803Z,14.39
2023-04-10T05:23:03.617Z,14.46
2023-04-10T05:25:50.811Z,14.53
2023-04-10T05:28:22.991Z,14.61
2023-04-10T05:31:25.869Z,14.73
2023-04-10T05:34:16.473Z,14.71
2023-04-10T05:36:58.300Z,14.64
2023-04-10T05:39:45.797Z,14.84
2023-04-10T05:42:33.813Z,15.18
2023-04-10T05:45:30.519Z,15.38
2023-04-10T05:48:19.687Z,15.66
2023-04-10T05:51:02.428Z,15.91
2023-04-10T05:53:43.137Z,16.05
2023-04-10T05:56:42.471Z,15.95
2023-04-10T05:59:39.567Z,15.85
2023-04-10T06:02:46.246Z,16.10
2023-04-10T06:05:22.616Z,16.42
2023-04-10T06:08:04.191Z,16.66
2023-04-10T06:10:31.997Z,16.91
2023-04-10T06:12:59.778Z,17.12
2023-04-10T06:15:27.860Z,17.26
2023-04-10T06:17:56.190Z,17.28
2023-04-10T06:20:24.055Z,17.23
2023-04-10T06:22:51.877Z,17.05
2023-04-10T06:25:19.364Z,16.98
2023-04-10T06:27:46.856Z,17.07
2023-04-10T06:30:14.771Z,17.02
2023-04-10T06:32:42.561Z,16.89
2023-04-10T06:35:11.570Z,16.97
2023-04-10T06:37:41.647Z,16.90
2023-04-10T06:40:12.226Z,16.83
2023-04-10T06:42:39.692Z,16.75
2023-04-10T06:45:13.515Z,16.79
2023-04-10T06:47:41.112Z,16.90
2023-04-10T06:50:08.783Z,17.11
2023-04-10T06:52:36.191Z,17.25
2023-04-10T06:55:04.242Z,17.37
2023-04-10T06:57:32.106Z,17.43
2023-04-10T06:59:59.677Z,17.42
2023-04-10T15:42:05.644Z,15.67
2023-04-10T15:44:33.834Z,15.25
2023-04-10T15:47:01.907Z,14.91
2023-04-10T15:49:37.908Z,14.71
2023-04-10T15:52:13.271Z,14.50
2023-04-10T15:54:49.821Z,14.38
2023-04-10T15:57:20.832Z,14.28
2023-04-10T15:59:51.334Z,14.17
2023-04-10T16:02:19.170Z,14.06
2023-04-10T16:04:46.921Z,13.93
2023-04-10T16:07:14.431Z,13.82
2023-04-10T16:09:41.754Z,13.70
2023-04-10T16:12:09.055Z,13.56
2023-04-10T16:14:36.572Z,13.43
2023-04-10T16:17:03.848Z,13.27
2023-04-10T16:19:32.009Z,13.11
2023-04-10T16:21:59.476Z,12.95
2023-04-10T16:24:27.043Z,12.82
2023-04-10T16:26:54.790Z,12.67
2023-04-10T16:29:22.185Z,12.53
2023-04-10T16:31:49.560Z,12.39
2023-04-10T16:34:16.883Z,12.23
2023-04-10T16:36:45.026Z,12.14
2023-04-10T16:39:12.660Z,12.02
2023-04-10T16:41:40.030Z,11.90
2023-04-10T16:44:08.131Z,11.81
2023-04-10T16:46:36.322Z,11.75
2023-04-10T16:49:04.484Z,11.67
2023-04-10T16:51:32.002Z,11.58
2023-04-10T16:53:59.446Z,11.52
2023-04-10T16:56:27.197Z,11.45
2023-04-10T16:58:57.490Z,11.41
2023-04-10T17:01:25.854Z,11.41
2023-04-10T17:03:54.307Z,11.41
2023-04-10T17:06:22.302Z,11.45
2023-04-10T17:08:53.454Z,11.50
2023-04-10T17:11:21.240Z,11.55
2023-04-10T17:13:51.460Z,11.58
2023-04-10T17:16:20.295Z,11.60
2023-04-10T17:18:48.161Z,11.61
2023-04-10T17:21:18.524Z,11.61
2023-04-10T17:23:46.038Z,11.61
2023-04-10T17:26:14.274Z,11.60
2023-04-10T17:28:44.598Z,11.56
2023-04-10T17:31:15.678Z,11.53
2023-04-10T17:33:43.925Z,11.49
2023-04-10T17:36:12.489Z,11.47
2023-04-10T17:38:40.404Z,11.48
2023-04-10T17:41:08.331Z,11.45
2023-04-10T17:43:36.202Z,11.42
2023-04-10T17:46:03.496Z,11.39
2023-04-10T17:48:31.854Z,11.35
2023-04-10T17:51:01.594Z,11.31
2023-04-10T17:53:29.454Z,11.30
2023-04-10T17:55:57.140Z,11.30
2023-04-10T17:58:25.948Z,11.31
2023-04-10T18:01:01.743Z,11.31
2023-04-10T18:03:29.223Z,11.29
2023-04-10T18:05:56.826Z,11.25
2023-04-10T18:08:24.484Z,11.22
2023-04-10T18:10:51.838Z,11.20
2023-04-10T18:13:19.673Z,11.16
2023-04-10T18:15:47.223Z,11.14
2023-04-10T18:18:14.809Z,11.10
2023-04-10T18:20:42.093Z,11.07
2023-04-10T18:23:09.820Z,11.05
2023-04-10T18:25:40.515Z,11.03
2023-04-10T18:30:39.664Z,11.01
2023-04-10T18:33:10.759Z,10.98
2023-04-10T18:35:39.822Z,10.96
2023-04-10T18:38:07.245Z,10.96
2023-04-10T18:40:37.044Z,10.99
2023-04-10T18:43:05.546Z,11.05
2023-04-10T18:45:34.714Z,11.10
2023-04-10T18:48:02.965Z,11.13
2023-04-10T18:50:30.820Z,11.18
2023-04-10T18:52:58.128Z,11.18
2023-04-10T18:55:25.687Z,11.15
2023-04-10T18:57:53.058Z,11.14
2023-04-10T19:00:20.340Z,11.12
2023-04-10T19:02:47.691Z,11.09
2023-04-10T19:05:16.717Z,11.06
2023-04-10T19:07:56.606Z,11.04
2023-04-10T19:10:31.798Z,11.01
2023-04-10T19:12:59.000Z,10.96
2023-04-10T19:15:26.692Z,10.90
2023-04-10T19:17:54.880Z,10.85
2023-04-10T19:20:49.105Z,10.81
2023-04-10T19:23:09.941Z,10.78
2023-04-10T19:25:37.400Z,10.76
2023-04-10T19:28:05.081Z,10.71
2023-04-10T19:30:32.759Z,10.72
2023-04-10T19:33:00.262Z,10.70
2023-04-10T19:35:27.731Z,10.72
2023-04-10T19:37:58.273Z,10.75
2023-04-10T19:40:26.124Z,10.79
2023-04-10T19:42:53.556Z,10.85
2023-04-10T19:45:22.357Z,10.91
2023-04-10T19:47:52.993Z,10.98
2023-04-10T19:50:20.373Z,11.06
2023-04-10T19:52:47.949Z,11.11
2023-04-10T19:55:17.010Z,11.13
2023-04-10T19:57:47.104Z,11.14
2023-04-10T20:00:14.653Z,11.13
2023-04-10T20:02:42.320Z,11.12
2023-04-10T20:05:10.034Z,11.11
2023-04-10T20:07:37.542Z,11.10
2023-04-10T20:10:05.289Z,11.06
2023-04-10T20:12:33.284Z,11.05
2023-04-10T20:15:01.510Z,11.07
2023-04-10T20:17:30.381Z,11.10
2023-04-10T20:19:57.759Z,11.16
2023-04-10T20:22:25.532Z,11.22
2023-04-10T20:24:53.134Z,11.29
2023-04-10T20:27:20.439Z,11.32
2023-04-10T20:29:47.844Z,11.35
2023-04-10T20:32:15.722Z,11.35
2023-04-10T20:34:43.074Z,11.33
2023-04-10T20:37:10.584Z,11.32
2023-04-10T20:39:38.383Z,11.31
2023-04-10T20:42:06.354Z,11.32
2023-04-10T20:44:36.122Z,11.31
2023-04-10T20:47:04.650Z,11.33
2023-04-10T20:49:32.278Z,11.33
2023-04-10T20:52:00.242Z,11.33
2023-04-10T20:54:28.085Z,11.36
2023-04-10T20:56:57.028Z,11.36
2023-04-10T20:59:24.389Z,11.34
2023-04-10T21:01:51.935Z,11.33
2023-04-10T21:04:20.235Z,11.32
2023-04-10T21:06:47.790Z,11.34
2023-04-10T21:09:15.337Z,11.34
2023-04-10T21:11:42.786Z,11.36
2023-04-10T21:14:10.616Z,11.39
2023-04-10T21:16:41.374Z,11.41
2023-04-10T21:19:09.454Z,11.43
2023-04-10T21:21:36.847Z,11.47
2023-04-10T21:24:04.643Z,11.50
2023-04-10T21:26:32.158Z,11.53
2023-04-10T21:28:59.568Z,11.56
2023-04-10T21:31:27.042Z,11.58
2023-04-10T21:33:57.532Z,11.60
2023-04-10T21:36:25.067Z,11.61
2023-04-10T21:38:52.852Z,11.61
2023-04-10T21:41:21.164Z,11.61
2023-04-10T21:43:48.333Z,11.61
2023-04-10T21:46:16.186Z,11.58
2023-04-10T21:48:43.645Z,11.54
2023-04-10T21:51:11.248Z,11.50
2023-04-10T21:53:38.449Z,11.48
2023-04-10T21:56:06.037Z,11.45
2023-04-10T21:58:33.816Z,11.39
2023-04-10T22:01:01.468Z,11.35
2023-04-10T22:03:29.089Z,11.31
2023-04-10T22:05:56.494Z,11.29
2023-04-10T22:08:24.009Z,11.26
2023-04-10T22:10:52.393Z,11.26
2023-04-10T22:13:30.219Z,11.29
2023-04-10T22:16:00.343Z,11.31
2023-04-10T22:18:28.048Z,11.32
2023-04-10T22:20:55.822Z,11.31
2023-04-10T22:23:23.925Z,11.30
2023-04-10T22:25:51.181Z,11.31
2023-04-10T22:28:18.380Z,11.32
2023-04-10T22:30:46.163Z,11.34
2023-04-10T22:33:13.574Z,11.35
2023-04-10T22:35:42.609Z,11.35
2023-04-10T22:38:10.036Z,11.35
2023-04-10T22:40:37.469Z,11.35
2023-04-10T22:43:04.860Z,11.34
2023-04-10T22:45:32.065Z,11.31
2023-04-10T22:47:59.406Z,11.29
2023-04-10T22:50:26.888Z,11.25
2023-04-10T22:52:54.084Z,11.20
2023-04-10T22:55:21.494Z,11.16
2023-04-10T22:57:50.771Z,11.13
2023-04-10T23:00:22.691Z,11.13
2023-04-10T23:02:50.571Z,11.11
2023-04-10T23:05:17.999Z,11.11
2023-04-10T23:07:45.479Z,11.10
2023-04-10T23:10:12.680Z,11.10
2023-04-10T23:12:40.334Z,11.13
2023-04-10T23:15:07.816Z,11.17
2023-04-10T23:17:35.212Z,11.21
2023-04-10T23:20:02.573Z,11.24
2023-04-10T23:22:30.641Z,11.29
2023-04-10T23:24:58.080Z,11.32
2023-04-10T23:27:25.511Z,11.33
2023-04-10T23:29:53.323Z,11.34
2023-04-10T23:32:20.691Z,11.38
2023-04-10T23:34:48.106Z,11.38
2023-04-10T23:37:15.412Z,11.36
2023-04-10T23:39:42.951Z,11.35
2023-04-10T23:42:10.418Z,11.32
2023-04-10T23:44:37.827Z,11.29
2023-04-10T23:47:06.576Z,11.27
2023-04-10T23:49:35.398Z,11.25
2023-04-10T23:52:02.673Z,11.21
2023-04-10T23:54:29.914Z,11.19
2023-04-10T23:56:57.804Z,11.18
2023-04-10T23:59:25.228Z,11.16
